Time;durP1;ratioP1;P1;durP2;ratioP2;P2;SDS_P1;SDS_P2;PMS_P1;PMS_P2;Temp;Humidity;BMP_temperature;BMP_pressure;BME280_temperature;BME280_humidity;BME280_pressure;Samples;Min_cycle;Max_cycle;Signal;HPM_P1;HPM_P2
2021/12/18 00:02:10;;;;;;;28.52;15.07;;;3.20;99.90;;;;;;5055149;28;20104;-69
2021/12/18 00:04:36;;;;;;;29.08;15.23;;;3.20;99.90;;;;;;5053578;28;20028;-68
2021/12/18 00:07:02;;;;;;;34.17;16.15;;;3.20;99.90;;;;;;5053781;28;20029;-68
2021/12/18 00:09:30;;;;;;;29.65;15.55;;;3.20;99.90;;;;;;5073852;28;20043;-68
2021/12/18 00:11:57;;;;;;;33.08;15.75;;;3.20;99.90;;;;;;5056133;28;20025;-68
2021/12/18 00:14:23;;;;;;;26.90;14.98;;;3.20;99.90;;;;;;5054256;28;20421;-68
2021/12/18 00:16:49;;;;;;;26.98;14.93;;;3.30;99.90;;;;;;5054647;28;20071;-68
2021/12/18 00:19:14;;;;;;;26.90;14.63;;;3.30;99.90;;;;;;5062560;28;20115;-68
2021/12/18 00:21:40;;;;;;;28.52;14.98;;;3.30;99.90;;;;;;5054054;28;20503;-68
2021/12/18 00:24:07;;;;;;;25.58;13.75;;;3.30;99.90;;;;;;5053017;28;20056;-68
2021/12/18 00:26:33;;;;;;;26.77;13.90;;;3.30;99.90;;;;;;5034573;28;20040;-68
2021/12/18 00:29:00;;;;;;;25.88;14.25;;;3.30;99.90;;;;;;5051938;28;20028;-69
2021/12/18 00:31:26;;;;;;;27.13;14.32;;;3.20;99.90;;;;;;5054237;28;20029;-68
2021/12/18 00:33:52;;;;;;;28.75;14.05;;;3.20;99.90;;;;;;5054889;28;20024;-69
2021/12/18 00:36:17;;;;;;;28.20;15.18;;;3.20;99.90;;;;;;5055712;28;20048;-68
2021/12/18 00:38:43;;;;;;;31.00;14.63;;;3.20;99.90;;;;;;5054577;28;20185;-68
2021/12/18 00:44:00;;;;;;;24.80;14.25;;;3.20;99.90;;;;;;5075683;28;20492;-68
2021/12/18 00:46:23;;;;;;;23.35;13.85;;;3.10;99.90;;;;;;5071686;28;20052;-68
2021/12/18 00:48:48;;;;;;;26.75;14.07;;;3.10;99.90;;;;;;5056078;28;20021;-68
2021/12/18 00:51:14;;;;;;;25.40;13.95;;;3.10;99.90;;;;;;5053781;28;20021;-68
2021/12/18 00:53:39;;;;;;;28.20;15.27;;;3.20;99.90;;;;;;5053968;28;20170;-68
2021/12/18 00:56:05;;;;;;;26.88;14.40;;;3.20;99.90;;;;;;5052221;28;20096;-68
2021/12/18 00:58:31;;;;;;;25.58;13.00;;;3.20;99.90;;;;;;5061948;28;20024;-68
2021/12/18 01:00:57;;;;;;;23.23;13.45;;;3.20;99.90;;;;;;5063712;28;20021;-68
2021/12/18 01:03:22;;;;;;;25.83;14.15;;;3.20;99.90;;;;;;5059017;28;20062;-68
2021/12/18 01:05:49;;;;;;;27.85;15.05;;;3.20;99.90;;;;;;5052408;28;20099;-68
2021/12/18 01:08:15;;;;;;;27.13;14.32;;;3.20;99.90;;;;;;5070093;28;20537;-68
2021/12/18 01:13:30;;;;;;;24.48;13.77;;;3.20;99.90;;;;;;5063959;28;20034;-71
2021/12/18 01:16:04;;;;;;;24.70;13.48;;;3.20;99.90;;;;;;5059587;28;20029;-70
2021/12/18 01:23:58;;;;;;;26.08;15.15;;;3.10;99.90;;;;;;5078913;28;20501;-71
2021/12/18 01:26:23;;;;;;;28.83;14.07;;;3.10;99.90;;;;;;5064197;28;20024;-67
2021/12/18 01:28:49;;;;;;;29.77;15.15;;;3.10;99.90;;;;;;5065891;28;20043;-68
2021/12/18 01:31:15;;;;;;;28.55;13.85;;;3.10;99.90;;;;;;5064614;28;20033;-67
2021/12/18 01:33:40;;;;;;;25.23;13.75;;;3.10;99.90;;;;;;5045242;28;20024;-69
2021/12/18 01:36:06;;;;;;;25.67;14.05;;;3.10;99.90;;;;;;5045888;28;20520;-69
2021/12/18 01:38:32;;;;;;;25.33;13.40;;;3.10;99.90;;;;;;5047305;28;20038;-67
2021/12/18 01:40:59;;;;;;;26.38;13.38;;;3.00;99.90;;;;;;5057448;28;20054;-68
2021/12/18 01:53:37;;;;;;;26.98;13.57;;;2.90;99.90;;;;;;5063337;28;20523;-67
2021/12/18 01:56:04;;;;;;;25.75;14.32;;;2.90;99.90;;;;;;5052831;28;20029;-68
2021/12/18 01:58:30;;;;;;;25.13;12.90;;;2.90;99.90;;;;;;5055043;28;20396;-67
2021/12/18 02:00:58;;;;;;;28.80;14.90;;;2.90;99.90;;;;;;5049435;28;20399;-67
2021/12/18 02:03:24;;;;;;;29.42;14.05;;;2.90;99.90;;;;;;5033141;28;20033;-68
2021/12/18 02:05:51;;;;;;;27.65;14.50;;;2.90;99.90;;;;;;5055832;28;20017;-67
2021/12/18 02:08:22;;;;;;;27.65;13.30;;;2.90;99.90;;;;;;5060258;28;20546;-67
2021/12/18 02:10:54;;;;;;;27.48;13.52;;;2.90;99.90;;;;;;5060239;28;20052;-68
2021/12/18 02:13:25;;;;;;;29.60;13.95;;;2.90;99.90;;;;;;5054343;28;20052;-68
2021/12/18 02:21:23;;;;;;;27.33;13.55;;;2.90;99.90;;;;;;5070633;28;20102;-67
2021/12/18 02:23:50;;;;;;;24.92;13.20;;;2.90;99.90;;;;;;5059414;28;20021;-67
2021/12/18 02:26:16;;;;;;;29.35;14.27;;;2.80;99.90;;;;;;5050851;28;20033;-69
2021/12/18 02:28:45;;;;;;;25.52;13.52;;;2.80;99.90;;;;;;5050931;28;20032;-67
2021/12/18 02:31:11;;;;;;;27.63;13.38;;;2.80;99.90;;;;;;5054596;28;20389;-67
2021/12/18 02:33:37;;;;;;;27.45;13.73;;;2.90;99.90;;;;;;5052692;28;20079;-67
2021/12/18 02:36:06;;;;;;;29.52;14.60;;;2.80;99.90;;;;;;5069130;28;20476;-68
2021/12/18 02:41:26;;;;;;;26.08;13.82;;;2.90;99.90;;;;;;5082390;28;20028;-68
2021/12/18 02:43:52;;;;;;;24.13;11.63;;;2.90;99.90;;;;;;5052563;28;20059;-67
2021/12/18 02:46:21;;;;;;;26.45;13.25;;;2.90;99.90;;;;;;5060726;28;20660;-67
2021/12/18 02:48:49;;;;;;;29.83;14.05;;;2.90;99.90;;;;;;5048548;28;20025;-68
2021/12/18 02:51:16;;;;;;;27.60;13.93;;;2.90;99.90;;;;;;5063496;28;20013;-67
2021/12/18 02:53:45;;;;;;;32.42;15.10;;;2.90;99.90;;;;;;5065517;28;20448;-68
2021/12/18 02:56:15;;;;;;;28.05;14.52;;;2.90;99.90;;;;;;5059608;28;20405;-69
2021/12/18 02:58:43;;;;;;;31.13;15.35;;;2.90;99.90;;;;;;5051816;28;20048;-69
2021/12/18 03:01:13;;;;;;;30.30;14.77;;;2.90;99.90;;;;;;5060338;28;20020;-67
2021/12/18 03:03:41;;;;;;;31.60;15.10;;;2.90;99.90;;;;;;5055527;28;20028;-71
2021/12/18 03:06:34;;;;;;;29.80;14.10;;;2.90;99.90;;;;;;5050282;28;20020;-70
2021/12/18 03:27:51;;;;;;;28.45;12.75;;;2.90;99.90;;;;;;5015643;28;20264;-67
2021/12/18 03:30:18;;;;;;;27.70;13.18;;;2.90;99.90;;;;;;5042544;28;20035;-67
2021/12/18 03:32:45;;;;;;;26.23;11.60;;;2.90;99.90;;;;;;5053280;28;20120;-68
2021/12/18 03:35:11;;;;;;;25.73;12.32;;;2.80;99.90;;;;;;5065589;28;20028;-67
2021/12/18 03:37:38;;;;;;;27.77;12.05;;;2.90;99.90;;;;;;5067016;28;20393;-66
2021/12/18 03:40:06;;;;;;;27.88;11.60;;;2.80;99.90;;;;;;5067482;28;20119;-70
2021/12/18 03:42:33;;;;;;;30.10;12.95;;;2.90;99.90;;;;;;5052779;28;20028;-67
2021/12/18 03:44:59;;;;;;;33.28;13.85;;;2.80;99.90;;;;;;5061925;28;20075;-67
2021/12/18 03:47:24;;;;;;;30.58;12.82;;;2.80;99.90;;;;;;5051925;28;20120;-66
2021/12/18 03:49:50;;;;;;;29.63;13.45;;;2.80;99.90;;;;;;5061206;28;20116;-67
2021/12/18 03:52:16;;;;;;;30.10;13.15;;;2.80;99.90;;;;;;5055936;28;20024;-67
2021/12/18 03:54:41;;;;;;;31.60;14.05;;;2.80;99.90;;;;;;5057534;28;20139;-66
2021/12/18 03:57:07;;;;;;;30.55;14.35;;;2.80;99.90;;;;;;5054712;28;20027;-67
2021/12/18 03:59:33;;;;;;;30.48;14.45;;;2.80;99.90;;;;;;5052700;28;20149;-67
2021/12/18 04:01:58;;;;;;;35.58;15.20;;;2.80;99.90;;;;;;5066059;28;20035;-68
2021/12/18 04:04:24;;;;;;;39.05;16.52;;;2.80;99.90;;;;;;5069845;28;20024;-67
2021/12/18 04:06:51;;;;;;;34.97;15.27;;;2.80;99.90;;;;;;5073154;28;20032;-67
2021/12/18 04:09:16;;;;;;;38.15;15.57;;;2.80;99.90;;;;;;5063362;28;20076;-70
2021/12/18 04:11:43;;;;;;;29.85;14.30;;;2.80;99.90;;;;;;5061478;28;20036;-67
2021/12/18 04:14:10;;;;;;;36.42;15.68;;;2.80;99.90;;;;;;5065215;28;20488;-70
2021/12/18 04:16:37;;;;;;;32.97;15.65;;;2.80;99.90;;;;;;5054719;28;20062;-66
2021/12/18 04:19:03;;;;;;;34.05;15.80;;;2.80;99.90;;;;;;5053283;28;20028;-67
2021/12/18 04:21:30;;;;;;;35.10;15.40;;;2.80;99.90;;;;;;5051192;28;20025;-70
2021/12/18 04:23:56;;;;;;;36.92;15.82;;;2.70;99.90;;;;;;5054331;28;20036;-67
2021/12/18 04:26:22;;;;;;;38.38;16.25;;;2.80;99.90;;;;;;5053855;28;20024;-67
2021/12/18 04:28:47;;;;;;;39.10;16.98;;;2.80;99.90;;;;;;5059545;28;20538;-66
2021/12/18 04:31:14;;;;;;;32.90;15.68;;;2.80;99.90;;;;;;5056906;28;20128;-68
2021/12/18 04:33:40;;;;;;;36.40;16.02;;;2.70;99.90;;;;;;5054793;28;20452;-68
2021/12/18 04:36:06;;;;;;;34.97;16.77;;;2.70;99.90;;;;;;5055696;28;20064;-68
2021/12/18 04:38:31;;;;;;;36.60;16.65;;;2.70;99.90;;;;;;5050350;28;20021;-68
2021/12/18 04:40:58;;;;;;;40.25;16.67;;;2.70;99.90;;;;;;5061642;28;20093;-70
2021/12/18 04:43:24;;;;;;;40.03;15.88;;;2.70;99.90;;;;;;5051852;28;20120;-68
2021/12/18 04:45:49;;;;;;;37.03;16.42;;;2.70;99.90;;;;;;5064924;28;20127;-68
2021/12/18 04:48:15;;;;;;;36.72;16.90;;;2.70;99.90;;;;;;5053005;28;20028;-67
2021/12/18 04:50:41;;;;;;;39.42;16.17;;;2.70;99.90;;;;;;5071909;28;20021;-67
2021/12/18 04:53:07;;;;;;;33.22;15.52;;;2.60;99.90;;;;;;5054035;28;20021;-67
2021/12/18 04:55:33;;;;;;;31.48;13.65;;;2.60;99.90;;;;;;5050609;28;20407;-68
2021/12/18 04:57:58;;;;;;;24.23;11.73;;;2.60;99.90;;;;;;5053222;28;20503;-70
2021/12/18 05:00:36;;;;;;;25.63;12.43;;;2.60;99.90;;;;;;5052072;28;20037;-68
2021/12/18 05:03:05;;;;;;;20.80;10.20;;;2.60;99.90;;;;;;5053622;28;20112;-70
2021/12/18 05:05:31;;;;;;;23.10;10.50;;;2.60;99.90;;;;;;5062023;28;20021;-67
2021/12/18 05:07:56;;;;;;;16.85;8.73;;;2.60;99.90;;;;;;5072694;28;20025;-67
2021/12/18 05:10:22;;;;;;;15.82;8.55;;;2.60;99.90;;;;;;5053202;28;20115;-69
2021/12/18 05:12:48;;;;;;;15.10;7.75;;;2.60;99.90;;;;;;5071912;28;20104;-67
2021/12/18 05:15:14;;;;;;;16.98;7.65;;;2.60;99.90;;;;;;5053777;28;20145;-67
2021/12/18 05:17:39;;;;;;;14.23;7.55;;;2.50;99.90;;;;;;5059103;28;20029;-67
2021/12/18 05:20:06;;;;;;;13.40;7.47;;;2.50;99.90;;;;;;5050769;28;20116;-67
2021/12/18 05:22:32;;;;;;;13.48;6.45;;;2.50;99.90;;;;;;5053550;28;20021;-67
2021/12/18 05:24:57;;;;;;;13.35;6.50;;;2.50;99.90;;;;;;5050375;28;20499;-67
2021/12/18 05:27:23;;;;;;;15.35;6.68;;;2.50;99.90;;;;;;5051495;28;20066;-68
2021/12/18 05:29:49;;;;;;;12.20;6.50;;;2.50;99.90;;;;;;5060572;28;20480;-69
2021/12/18 05:32:15;;;;;;;11.68;6.90;;;2.50;99.90;;;;;;5060581;28;20127;-67
2021/12/18 05:34:40;;;;;;;10.70;6.13;;;2.50;99.90;;;;;;5091585;22;20119;-86
2021/12/18 05:39:41;;;;;;;11.65;6.20;;;2.50;99.90;;;;;;5092589;28;20024;-86
2021/12/18 05:42:07;;;;;;;13.02;6.57;;;2.60;99.90;;;;;;5089368;28;20027;-87
2021/12/18 05:44:32;;;;;;;9.70;5.38;;;2.60;99.90;;;;;;5067990;28;20031;-87
2021/12/18 05:46:58;;;;;;;11.60;5.75;;;2.60;99.90;;;;;;5070142;28;20030;-86
2021/12/18 05:49:24;;;;;;;13.10;6.43;;;2.60;99.90;;;;;;5053060;28;20024;-87
2021/12/18 05:51:49;;;;;;;12.05;5.72;;;2.60;99.90;;;;;;5067748;28;20025;-87
2021/12/18 05:54:16;;;;;;;12.85;6.00;;;2.60;99.90;;;;;;5065268;28;20373;-87
2021/12/18 05:56:42;;;;;;;12.63;6.10;;;2.60;99.90;;;;;;5053636;28;20032;-87
2021/12/18 05:59:08;;;;;;;11.25;5.95;;;2.60;99.90;;;;;;5067461;28;20081;-88
2021/12/18 06:01:34;;;;;;;12.40;6.30;;;2.60;99.90;;;;;;5068995;28;20028;-87
2021/12/18 06:04:01;;;;;;;14.32;6.75;;;2.60;99.90;;;;;;5073533;28;20027;-87
2021/12/18 06:06:29;;;;;;;14.57;6.82;;;2.60;99.90;;;;;;5076982;28;20047;-87
2021/12/18 06:08:54;;;;;;;19.00;7.53;;;2.70;99.90;;;;;;5066470;28;20020;-87
2021/12/18 06:11:22;;;;;;;12.20;6.47;;;2.70;99.90;;;;;;5052408;28;20024;-87
2021/12/18 06:13:50;;;;;;;14.68;6.55;;;2.70;99.90;;;;;;5052057;28;20028;-87
2021/12/18 06:16:17;;;;;;;15.32;7.82;;;2.70;99.90;;;;;;5067820;28;20463;-86
2021/12/18 06:18:45;;;;;;;14.65;7.28;;;2.70;99.90;;;;;;5048000;28;20029;-87
2021/12/18 06:21:15;;;;;;;15.80;7.13;;;2.70;99.90;;;;;;5077001;28;20043;-86
2021/12/18 06:23:48;;;;;;;15.32;7.10;;;2.70;99.90;;;;;;5075494;28;20024;-87
2021/12/18 06:26:14;;;;;;;15.13;7.47;;;2.70;99.90;;;;;;5053088;28;20036;-87
2021/12/18 06:28:40;;;;;;;13.55;7.32;;;2.70;99.90;;;;;;5087544;28;20032;-87
2021/12/18 06:31:06;;;;;;;16.67;7.72;;;2.70;99.90;;;;;;5082304;28;20051;-86
2021/12/18 06:33:32;;;;;;;14.70;6.68;;;2.70;99.90;;;;;;5042585;28;20020;-87
2021/12/18 06:35:58;;;;;;;18.33;8.05;;;2.70;99.90;;;;;;5064406;28;20074;-86
2021/12/18 06:38:24;;;;;;;18.50;7.72;;;2.70;99.90;;;;;;5071215;28;20068;-87
2021/12/18 06:40:50;;;;;;;17.42;7.82;;;2.70;99.90;;;;;;5052303;28;20059;-88
2021/12/18 06:43:16;;;;;;;13.98;7.00;;;2.70;99.90;;;;;;5068441;28;20097;-87
2021/12/18 06:45:42;;;;;;;15.90;7.63;;;2.70;99.90;;;;;;5070385;28;20028;-86
2021/12/18 06:48:07;;;;;;;14.80;7.72;;;2.70;99.90;;;;;;5052402;28;20021;-88
2021/12/18 06:50:35;;;;;;;14.50;7.63;;;2.70;99.90;;;;;;5050625;28;20127;-86
2021/12/18 06:53:00;;;;;;;15.55;8.35;;;2.80;99.90;;;;;;5069157;28;20048;-87
2021/12/18 06:55:27;;;;;;;18.10;8.02;;;2.80;99.90;;;;;;5048407;28;20075;-87
2021/12/18 06:57:52;;;;;;;15.35;8.25;;;2.80;99.90;;;;;;5033962;28;20040;-87
2021/12/18 07:00:20;;;;;;;15.07;8.20;;;2.80;99.90;;;;;;5055748;28;20033;-87
2021/12/18 07:02:46;;;;;;;14.75;8.32;;;2.80;99.90;;;;;;5066241;28;20108;-87
2021/12/18 07:05:12;;;;;;;15.30;7.97;;;2.80;99.90;;;;;;5072548;28;20036;-86
2021/12/18 07:07:38;;;;;;;15.38;7.90;;;2.80;99.90;;;;;;5064143;28;20492;-87
2021/12/18 07:10:06;;;;;;;15.95;8.02;;;2.80;99.90;;;;;;5052325;28;20039;-87
2021/12/18 07:12:31;;;;;;;14.10;8.27;;;2.80;99.90;;;;;;5056436;28;20085;-87
2021/12/18 07:14:57;;;;;;;16.13;8.65;;;2.90;99.90;;;;;;5073738;28;20103;-86
2021/12/18 07:17:22;;;;;;;15.68;8.30;;;2.90;99.90;;;;;;5071274;28;20097;-86
2021/12/18 07:19:48;;;;;;;15.95;8.43;;;2.90;99.90;;;;;;5073019;28;20036;-87
2021/12/18 07:22:14;;;;;;;16.15;8.45;;;2.90;99.90;;;;;;5072032;28;20214;-86
2021/12/18 07:24:39;;;;;;;15.48;8.57;;;2.90;99.90;;;;;;5072670;28;20024;-86
2021/12/18 07:27:05;;;;;;;15.88;8.50;;;3.00;99.90;;;;;;5058257;28;20075;-86
2021/12/18 07:29:31;;;;;;;16.40;8.77;;;3.00;99.90;;;;;;5080142;28;20165;-87
2021/12/18 07:31:57;;;;;;;17.05;9.20;;;3.00;99.90;;;;;;5072675;28;20472;-86
2021/12/18 07:34:22;;;;;;;15.07;8.52;;;3.00;99.90;;;;;;5052411;28;20036;-87
2021/12/18 07:36:48;;;;;;;16.70;8.70;;;3.00;99.90;;;;;;5046704;28;20028;-87
2021/12/18 07:39:14;;;;;;;17.08;8.60;;;3.00;99.90;;;;;;5071004;28;20373;-86
2021/12/18 07:41:40;;;;;;;15.52;8.80;;;3.00;99.90;;;;;;5072269;28;20032;-87
2021/12/18 07:44:06;;;;;;;18.48;8.68;;;3.00;99.90;;;;;;5067178;28;20041;-87
2021/12/18 07:46:36;;;;;;;13.45;7.90;;;3.00;99.90;;;;;;5041480;28;20047;-86
2021/12/18 07:49:03;;;;;;;14.63;8.65;;;3.00;99.90;;;;;;5072321;28;20114;-86
2021/12/18 07:51:29;;;;;;;13.95;8.23;;;3.10;99.90;;;;;;5073704;28;20088;-87
2021/12/18 07:53:55;;;;;;;13.05;7.80;;;3.10;99.90;;;;;;5072681;28;20029;-86
2021/12/18 07:56:21;;;;;;;15.55;8.80;;;3.10;99.90;;;;;;5055937;28;20135;-87
2021/12/18 07:58:47;;;;;;;14.88;8.30;;;3.10;99.90;;;;;;5073986;28;20754;-87
2021/12/18 08:01:12;;;;;;;17.17;8.20;;;3.10;99.90;;;;;;5054657;28;20036;-87
2021/12/18 08:03:38;;;;;;;15.10;8.35;;;3.10;99.90;;;;;;5048349;28;20098;-87
2021/12/18 08:06:04;;;;;;;16.10;8.38;;;3.10;99.90;;;;;;5050024;28;20060;-86
2021/12/18 08:08:30;;;;;;;14.80;8.27;;;3.10;99.90;;;;;;5080778;28;20484;-87
2021/12/18 08:10:55;;;;;;;13.65;8.77;;;3.10;99.90;;;;;;5086772;28;20027;-87
2021/12/18 08:13:21;;;;;;;14.73;8.80;;;3.10;99.90;;;;;;5075325;28;20123;-87
2021/12/18 08:15:47;;;;;;;15.50;9.35;;;3.10;99.90;;;;;;5075804;28;20052;-87
2021/12/18 08:18:13;;;;;;;18.35;8.85;;;3.20;99.90;;;;;;5058263;28;20032;-87
2021/12/18 08:20:39;;;;;;;13.52;8.82;;;3.20;99.90;;;;;;5066205;28;20029;-87
2021/12/18 08:23:04;;;;;;;13.75;8.68;;;3.20;99.90;;;;;;5072794;28;20025;-87
2021/12/18 08:25:32;;;;;;;14.20;8.40;;;3.20;99.90;;;;;;5056230;28;20036;-87
2021/12/18 08:27:59;;;;;;;13.27;8.40;;;3.20;99.90;;;;;;5063816;28;20020;-87
2021/12/18 08:30:29;;;;;;;11.90;7.85;;;3.20;99.90;;;;;;5071104;28;20025;-85
2021/12/18 08:32:56;;;;;;;13.70;8.55;;;3.20;99.90;;;;;;5071088;28;20094;-88
2021/12/18 08:35:22;;;;;;;14.05;8.93;;;3.20;99.90;;;;;;5090748;28;20021;-86
2021/12/18 08:37:48;;;;;;;16.27;8.52;;;3.20;99.90;;;;;;5071103;28;20045;-85
2021/12/18 08:40:13;;;;;;;16.23;9.38;;;3.20;99.90;;;;;;5067773;28;20020;-85
2021/12/18 08:42:39;;;;;;;18.23;8.57;;;3.30;99.90;;;;;;5096196;28;20023;-87
2021/12/18 08:45:06;;;;;;;13.70;8.77;;;3.30;99.90;;;;;;5071414;28;20131;-85
2021/12/18 08:47:32;;;;;;;13.18;8.77;;;3.40;99.90;;;;;;5071790;28;20392;-86
2021/12/18 08:49:59;;;;;;;16.67;8.73;;;3.40;99.90;;;;;;5055500;28;20021;-86
2021/12/18 08:52:25;;;;;;;14.05;8.82;;;3.40;99.90;;;;;;5069769;28;20415;-86
2021/12/18 08:54:51;;;;;;;13.80;9.20;;;3.40;99.90;;;;;;5052044;28;20024;-87
2021/12/18 08:57:18;;;;;;;14.02;8.38;;;3.40;99.90;;;;;;5050724;28;20449;-86
2021/12/18 08:59:43;;;;;;;13.68;8.65;;;3.50;99.90;;;;;;5061939;28;20036;-86
2021/12/18 09:02:10;;;;;;;20.38;8.68;;;3.50;99.90;;;;;;5064711;28;20480;-86
2021/12/18 09:04:36;;;;;;;16.00;9.38;;;3.50;99.90;;;;;;5050631;28;20048;-86
2021/12/18 09:07:02;;;;;;;18.60;9.02;;;3.50;99.90;;;;;;5065701;28;20035;-86
2021/12/18 09:09:28;;;;;;;16.95;9.10;;;3.50;99.90;;;;;;5050261;28;20018;-86
2021/12/18 09:11:53;;;;;;;17.55;9.55;;;3.60;99.90;;;;;;5071063;28;20029;-86
2021/12/18 09:14:19;;;;;;;14.93;8.32;;;3.60;99.90;;;;;;5071088;28;20036;-86
2021/12/18 09:16:44;;;;;;;16.95;9.27;;;3.60;99.90;;;;;;5067396;28;20033;-85
2021/12/18 09:19:10;;;;;;;14.90;8.85;;;3.60;99.90;;;;;;5056253;28;20086;-86
2021/12/18 09:21:36;;;;;;;15.23;9.35;;;3.60;99.90;;;;;;5069580;28;20776;-86
2021/12/18 09:24:02;;;;;;;16.23;9.32;;;3.60;99.90;;;;;;5078258;28;20024;-86
2021/12/18 09:26:28;;;;;;;12.98;8.75;;;3.60;99.90;;;;;;5069555;28;20016;-86
2021/12/18 09:28:53;;;;;;;13.43;8.32;;;3.60;99.90;;;;;;5069435;28;20472;-86
2021/12/18 09:31:19;;;;;;;12.43;8.65;;;3.60;99.90;;;;;;5052572;28;20035;-86
2021/12/18 09:33:45;;;;;;;14.65;9.00;;;3.60;99.90;;;;;;5060382;28;20179;-86
2021/12/18 09:36:11;;;;;;;14.13;9.45;;;3.60;99.90;;;;;;5048654;28;20037;-85
2021/12/18 09:38:36;;;;;;;13.70;9.07;;;3.60;99.90;;;;;;5074923;28;20042;-87
2021/12/18 09:41:06;;;;;;;15.05;8.73;;;3.60;99.90;;;;;;5076763;28;20043;-85
2021/12/18 09:43:33;;;;;;;14.02;8.52;;;3.70;99.90;;;;;;5078067;28;20051;-84
2021/12/18 09:46:08;;;;;;;12.38;8.00;;;3.60;99.90;;;;;;5093291;28;20032;-84
2021/12/18 09:48:36;;;;;;;14.77;9.15;;;3.70;99.90;;;;;;5076226;28;20028;-86
2021/12/18 09:51:07;;;;;;;17.45;9.27;;;3.60;99.90;;;;;;5072839;28;20024;-86
2021/12/18 09:53:34;;;;;;;15.75;9.07;;;3.70;99.90;;;;;;5064361;28;20020;-86
2021/12/18 09:55:59;;;;;;;17.40;9.38;;;3.70;99.90;;;;;;5069735;28;20032;-86
2021/12/18 09:58:25;;;;;;;17.27;9.48;;;3.70;99.90;;;;;;5060849;28;20035;-86
2021/12/18 10:00:51;;;;;;;14.60;9.23;;;3.70;99.90;;;;;;5064514;28;20108;-86
2021/12/18 10:03:16;;;;;;;14.32;8.18;;;3.70;99.90;;;;;;5043251;28;20106;-86
2021/12/18 10:05:42;;;;;;;15.50;10.05;;;3.70;99.90;;;;;;5050468;28;20477;-85
2021/12/18 10:08:15;;;;;;;15.63;9.63;;;3.70;99.90;;;;;;5050668;28;20100;-87
2021/12/18 10:11:06;;;;;;;14.60;9.35;;;3.70;99.90;;;;;;5069758;28;20052;-89
2021/12/18 10:13:50;;;;;;;14.68;8.73;;;3.70;99.90;;;;;;5055287;28;20024;-85
2021/12/18 10:16:16;;;;;;;16.40;9.70;;;3.80;99.90;;;;;;5051359;28;20028;-86
2021/12/18 10:18:41;;;;;;;16.20;9.90;;;3.80;99.90;;;;;;5058658;28;20024;-86
2021/12/18 10:21:14;;;;;;;16.95;10.70;;;3.80;99.90;;;;;;5071577;28;20047;-85
2021/12/18 10:23:44;;;;;;;17.65;10.27;;;3.80;99.90;;;;;;5041885;28;20035;-86
2021/12/18 10:26:42;;;;;;;15.57;9.93;;;3.80;99.90;;;;;;5068072;28;20134;-86
2021/12/18 10:29:35;;;;;;;16.42;9.55;;;3.80;99.90;;;;;;5052023;28;20040;-86
2021/12/18 10:32:04;;;;;;;16.70;9.52;;;3.90;99.90;;;;;;5088650;28;20020;-85
2021/12/18 10:34:30;;;;;;;13.80;9.63;;;3.90;99.90;;;;;;5077193;28;20012;-86
2021/12/18 10:37:24;;;;;;;17.40;10.57;;;3.90;99.90;;;;;;5069467;28;20032;-86
2021/12/18 10:39:50;;;;;;;14.60;9.77;;;4.00;99.90;;;;;;5071199;28;20028;-87
2021/12/18 10:42:23;;;;;;;14.15;9.45;;;4.00;99.90;;;;;;5062215;28;20507;-86
2021/12/18 10:45:09;;;;;;;15.07;9.38;;;4.00;99.90;;;;;;5057722;28;20059;-86
2021/12/18 10:47:53;;;;;;;13.10;9.27;;;4.00;99.90;;;;;;5036802;28;20440;-85
2021/12/18 10:50:28;;;;;;;12.68;8.38;;;4.00;99.90;;;;;;5058650;28;20025;-84
2021/12/18 10:53:02;;;;;;;13.13;8.20;;;4.00;99.90;;;;;;5052967;28;20047;-86
2021/12/18 10:55:50;;;;;;;15.30;9.05;;;4.00;99.90;;;;;;5038047;28;20091;-85
2021/12/18 10:58:20;;;;;;;14.48;9.27;;;4.00;99.90;;;;;;5052605;28;20021;-86
2021/12/18 11:00:58;;;;;;;13.95;9.15;;;4.00;99.90;;;;;;5054030;28;20017;-85
2021/12/18 11:03:38;;;;;;;13.90;9.38;;;4.10;99.90;;;;;;5051561;28;20454;-87
2021/12/18 11:06:14;;;;;;;15.82;9.68;;;4.00;99.90;;;;;;5050509;28;20032;-88
2021/12/18 11:09:00;;;;;;;12.68;8.50;;;4.10;99.90;;;;;;5054637;28;20051;-87
2021/12/18 11:14:23;;;;;;;15.57;9.30;;;4.10;99.90;;;;;;5079625;28;20020;-87
2021/12/18 11:16:54;;;;;;;15.25;9.38;;;4.10;99.90;;;;;;5074919;28;20082;-87
2021/12/18 11:19:26;;;;;;;15.35;8.90;;;4.10;99.90;;;;;;5070816;28;20380;-86
2021/12/18 11:22:13;;;;;;;16.15;10.32;;;4.10;99.90;;;;;;5054856;28;20148;-87
2021/12/18 11:24:51;;;;;;;14.75;9.63;;;4.20;99.90;;;;;;5060907;28;20037;-88
2021/12/18 11:27:20;;;;;;;15.45;9.65;;;4.10;99.90;;;;;;5074162;28;20013;-88
2021/12/18 11:30:06;;;;;;;15.60;10.23;;;4.10;99.90;;;;;;5070808;28;20162;-87
2021/12/18 11:32:35;;;;;;;16.65;10.05;;;4.10;99.90;;;;;;5069260;28;20027;-86
2021/12/18 11:35:05;;;;;;;16.80;10.18;;;4.20;99.90;;;;;;5068764;28;20431;-87
2021/12/18 11:38:00;;;;;;;18.38;9.68;;;4.20;99.90;;;;;;5079773;28;20085;-88
2021/12/18 11:40:36;;;;;;;14.95;9.43;;;4.20;99.90;;;;;;5051779;28;20028;-90
2021/12/18 11:43:40;;;;;;;16.48;10.25;;;4.20;99.90;;;;;;5066043;28;20110;-88
2021/12/18 11:46:27;;;;;;;15.32;10.07;;;4.20;99.90;;;;;;5054253;28;20024;-89
2021/12/18 11:48:55;;;;;;;15.25;9.80;;;4.20;99.90;;;;;;5065940;28;20401;-87
2021/12/18 11:51:21;;;;;;;17.42;9.95;;;4.20;99.90;;;;;;5051302;28;20024;-89
2021/12/18 11:53:47;;;;;;;22.42;11.07;;;4.20;99.90;;;;;;5073326;28;20036;-88
2021/12/18 11:56:14;;;;;;;18.10;10.10;;;4.20;99.90;;;;;;5056144;28;20028;-88
2021/12/18 11:58:46;;;;;;;17.77;9.77;;;4.20;99.90;;;;;;5069891;28;20028;-87
2021/12/18 12:01:25;;;;;;;19.13;10.98;;;4.20;99.90;;;;;;5053689;28;20029;-89
2021/12/18 12:03:50;;;;;;;19.20;10.25;;;4.20;99.90;;;;;;5070131;28;20036;-88
2021/12/18 12:06:26;;;;;;;17.17;10.38;;;4.20;99.90;;;;;;5049350;28;20025;-88
2021/12/18 12:09:26;;;;;;;15.45;10.25;;;4.20;99.90;;;;;;5052470;28;20021;-88
2021/12/18 12:12:04;;;;;;;17.60;10.48;;;4.20;99.90;;;;;;5047590;28;20028;-89
2021/12/18 12:14:31;;;;;;;19.35;11.23;;;4.20;99.90;;;;;;5054763;28;20575;-88
2021/12/18 12:17:08;;;;;;;17.48;10.55;;;4.20;99.90;;;;;;5072507;28;20055;-89
2021/12/18 12:19:33;;;;;;;19.55;10.80;;;4.20;99.90;;;;;;5054680;28;20488;-88
2021/12/18 12:21:59;;;;;;;19.15;10.95;;;4.20;99.90;;;;;;5052427;28;20067;-87
2021/12/18 12:24:27;;;;;;;20.83;11.88;;;4.20;99.90;;;;;;5048126;28;20043;-88
2021/12/18 12:26:54;;;;;;;17.88;11.35;;;4.20;99.90;;;;;;5054396;28;20025;-87
2021/12/18 12:29:22;;;;;;;19.25;11.43;;;4.20;99.90;;;;;;5069420;28;20016;-87
2021/12/18 12:31:55;;;;;;;19.90;11.68;;;4.20;99.90;;;;;;5064212;28;20025;-88
2021/12/18 12:34:22;;;;;;;18.33;11.43;;;4.20;99.90;;;;;;5064614;28;20028;-86
2021/12/18 12:36:48;;;;;;;18.98;11.63;;;4.20;99.90;;;;;;5051806;28;20036;-86
2021/12/18 12:39:15;;;;;;;19.83;11.73;;;4.10;99.90;;;;;;5079481;28;20091;-87
2021/12/18 12:41:47;;;;;;;17.85;10.15;;;4.10;99.90;;;;;;5071778;28;20028;-87
2021/12/18 12:44:23;;;;;;;18.80;11.57;;;4.20;99.90;;;;;;5079653;28;20098;-87
2021/12/18 12:47:12;;;;;;;17.95;10.85;;;4.10;99.90;;;;;;5057365;28;20538;-87
2021/12/18 12:49:37;;;;;;;18.27;11.60;;;4.10;99.90;;;;;;5058270;28;20029;-87
2021/12/18 12:52:07;;;;;;;23.02;12.55;;;4.20;99.90;;;;;;5073458;28;20043;-87
2021/12/18 12:54:45;;;;;;;21.52;13.05;;;4.20;99.90;;;;;;5055894;28;20028;-87
2021/12/18 12:57:23;;;;;;;21.33;12.35;;;4.10;99.90;;;;;;5055618;28;20111;-86
2021/12/18 13:00:17;;;;;;;22.08;12.60;;;4.10;99.90;;;;;;5074872;28;20084;-85
2021/12/18 13:02:56;;;;;;;20.75;12.10;;;4.10;99.90;;;;;;5096558;28;20017;-87
2021/12/18 13:05:24;;;;;;;22.20;12.13;;;4.10;99.90;;;;;;5077304;28;20029;-87
2021/12/18 13:08:02;;;;;;;21.02;12.32;;;4.10;99.90;;;;;;5062471;28;20427;-87
2021/12/18 13:10:35;;;;;;;20.27;12.15;;;4.10;99.90;;;;;;5062928;28;20089;-87
2021/12/18 13:13:07;;;;;;;21.10;12.85;;;4.10;99.90;;;;;;5072227;28;20044;-87
2021/12/18 13:16:10;;;;;;;22.95;12.57;;;4.10;99.90;;;;;;5071629;28;20024;-88
2021/12/18 13:18:50;;;;;;;24.05;12.30;;;4.00;99.90;;;;;;5026695;28;20041;-87
2021/12/18 13:21:19;;;;;;;24.90;12.82;;;4.00;99.90;;;;;;5087757;28;20050;-86
2021/12/18 13:24:05;;;;;;;24.45;13.07;;;4.00;99.90;;;;;;5105723;28;20027;-86
2021/12/18 13:26:34;;;;;;;21.90;12.65;;;4.00;99.90;;;;;;5096420;28;20009;-86
2021/12/18 13:29:02;;;;;;;23.20;12.43;;;4.10;99.90;;;;;;5068980;28;20128;-87
2021/12/18 13:31:33;;;;;;;23.95;13.00;;;4.10;99.90;;;;;;5072646;28;20476;-87
2021/12/18 13:34:26;;;;;;;22.10;12.70;;;4.10;99.90;;;;;;5053780;28;20116;-87
2021/12/18 13:37:07;;;;;;;21.33;12.13;;;4.10;99.90;;;;;;5064872;28;20036;-87
2021/12/18 13:39:41;;;;;;;20.92;12.15;;;4.10;99.90;;;;;;5095359;22;20032;-68
2021/12/18 13:42:11;;;;;;;21.52;12.02;;;4.10;99.90;;;;;;5034800;28;20056;-68
2021/12/18 13:44:41;;;;;;;26.00;12.70;;;4.10;99.90;;;;;;5058444;28;20483;-69